< < Back
Terminal Aerodrome Forecast


Current Version              Previous Versions:   1  2  3  4  5  6  7  8  9  

Terminal Aerodrome Forecast

699
FTUS42 KGSP 211100
TAFAND
TAF
KAND 211123Z 2112/2212 VRB03KT P6SM FEW250
     FM211600 24003KT P6SM FEW060 SCT250
     FM212300 29003KT P6SM SCT250=

Latest METAR

457
SAUS70 KWBC 212100 RRX
MTRAND
METAR KAND 212156Z AUTO 15004KT 10SM VCTS CLR 33/19 A3007 RMK AO2 LTG
DSNT NW SLP173 T03280189


USA.gov is the U.S. government's official web portal to all federal, state and local government web resources and services.